Mc Andrews, Kentucky
Current Conditions -  °F | °C
As of 7:35 PM on Tuesday 25 Nov 2014 (Local Time) from KPBX Reporting Station
Clear Clear  
Wind Chill:   Ceiling: Unl
Heat Index:   Visibility: 10mi
Dew Point: -3°   Wind: 6mph
Humidity: 46%   Direction: 360°N
Pressure: 30.09"   Gusts: NA
Location:  37.5713°N, 82.2677°W
Report Text: KPBX 260035Z AUTO 36005KT 10SM CLR 08/M03 A3009 RMK AO2 T00811030
Loading
Personal Weather Stations






























Interactive Weather Map New forecast layout! Learn more

10-Day Weather Forecast

Advertisements
Track Severe Weather on mobile